createdAt,value
2018-07-16T00:01:43.967Z,1.00
2018-07-16T00:04:12.460Z,1.00
2018-07-16T00:06:41.040Z,1.00
2018-07-16T00:09:09.526Z,1.00
2018-07-16T00:11:38.032Z,1.00
2018-07-16T00:14:06.529Z,1.00
2018-07-16T00:16:35.083Z,1.00
2018-07-16T00:19:03.560Z,1.00
2018-07-16T00:21:32.031Z,1.00
2018-07-16T00:24:00.483Z,1.00
2018-07-16T00:26:28.941Z,1.00
2018-07-16T00:28:57.504Z,1.00
2018-07-16T00:31:25.982Z,1.00
2018-07-16T00:33:54.443Z,8.80
2018-07-16T00:36:22.922Z,1.00
2018-07-16T00:38:51.382Z,9.90
2018-07-16T00:41:19.855Z,11.70
2018-07-16T00:43:48.369Z,10.90
2018-07-16T00:46:17.007Z,10.50
2018-07-16T00:48:45.518Z,47.80
2018-07-16T00:51:14.008Z,41.60
2018-07-16T00:53:42.618Z,59.10
2018-07-16T00:56:11.074Z,67.40
2018-07-16T00:58:39.561Z,69.30
2018-07-16T01:01:08.379Z,66.90
2018-07-16T01:03:36.859Z,43.30
2018-07-16T01:06:05.468Z,40.00
2018-07-16T01:08:33.956Z,24.80
2018-07-16T01:11:04.387Z,40.90
2018-07-16T01:13:32.870Z,44.70
2018-07-16T01:16:01.378Z,42.90
2018-07-16T01:18:30.369Z,31.90
2018-07-16T01:20:59.193Z,71.60
2018-07-16T01:23:27.686Z,61.40
2018-07-16T01:25:56.196Z,59.90
2018-07-16T01:28:24.662Z,51.90
2018-07-16T01:30:53.182Z,88.40
2018-07-16T01:33:21.641Z,69.90
2018-07-16T01:35:50.088Z,81.20
2018-07-16T01:38:18.628Z,63.40
2018-07-16T01:40:47.334Z,91.00
2018-07-16T01:43:15.821Z,84.00
2018-07-16T01:45:44.355Z,94.30
2018-07-16T01:48:12.853Z,99.60
2018-07-16T01:50:41.347Z,99.50
2018-07-16T01:53:09.828Z,99.60
2018-07-16T01:55:38.289Z,99.90
2018-07-16T01:58:06.791Z,92.00
2018-07-16T02:00:45.111Z,78.30
2018-07-16T02:03:13.607Z,90.00
2018-07-16T02:05:42.168Z,92.90
2018-07-16T02:08:10.643Z,98.80
2018-07-16T02:10:39.093Z,97.10
2018-07-16T02:13:07.574Z,99.60
2018-07-16T02:15:36.053Z,97.90
2018-07-16T02:18:04.596Z,91.90
2018-07-16T02:20:33.087Z,89.80
2018-07-16T02:23:01.569Z,96.20
2018-07-16T02:25:30.076Z,91.80
2018-07-16T02:27:58.543Z,97.50
2018-07-16T02:30:27.026Z,82.20
2018-07-16T02:32:55.532Z,74.00
2018-07-16T02:35:23.997Z,66.80
2018-07-16T02:37:52.488Z,77.50
2018-07-16T02:40:20.982Z,62.90
2018-07-16T02:42:49.552Z,41.90
2018-07-16T02:45:18.022Z,49.10
2018-07-16T02:47:46.718Z,39.10
2018-07-16T02:50:15.211Z,55.60
2018-07-16T02:52:43.695Z,81.50
2018-07-16T02:55:12.173Z,73.60
2018-07-16T02:57:40.672Z,94.80
2018-07-16T03:00:09.323Z,95.00
2018-07-16T03:02:39.014Z,97.30
2018-07-16T03:05:09.010Z,90.50
2018-07-16T03:07:37.474Z,91.30
2018-07-16T03:10:06.039Z,99.90
2018-07-16T03:12:34.527Z,99.90
2018-07-16T03:15:03.238Z,99.90
2018-07-16T03:17:31.822Z,99.90
2018-07-16T03:20:00.310Z,99.90
2018-07-16T03:22:28.817Z,99.90
2018-07-16T03:24:57.401Z,99.90
2018-07-16T03:27:25.908Z,99.90
2018-07-16T03:29:54.795Z,99.90
2018-07-16T03:32:23.258Z,99.90
2018-07-16T03:34:51.709Z,99.90
2018-07-16T03:37:20.179Z,99.90
2018-07-16T03:39:48.658Z,99.90
2018-07-16T03:42:17.156Z,99.90
2018-07-16T03:44:45.642Z,99.90
2018-07-16T03:47:14.133Z,99.90
2018-07-16T03:49:42.648Z,99.90
2018-07-16T03:52:11.347Z,99.90
2018-07-16T03:54:39.843Z,99.90
2018-07-16T03:57:08.557Z,99.90
2018-07-16T03:59:37.059Z,99.90
2018-07-16T04:02:05.526Z,99.90
2018-07-16T04:04:34.346Z,99.90
2018-07-16T04:07:02.831Z,99.90
2018-07-16T04:09:31.319Z,99.90
2018-07-16T04:11:59.777Z,99.90
2018-07-16T04:14:28.245Z,99.90
2018-07-16T04:16:56.715Z,99.90
2018-07-16T04:19:25.221Z,99.90
2018-07-16T04:21:53.723Z,99.90
2018-07-16T04:24:22.523Z,99.90
2018-07-16T04:26:51.003Z,99.90
2018-07-16T04:29:19.501Z,99.90
2018-07-16T04:31:48.024Z,99.90
2018-07-16T04:34:16.482Z,99.90
2018-07-16T04:36:45.120Z,99.90
2018-07-16T04:39:13.780Z,99.90
2018-07-16T04:41:43.061Z,99.90
2018-07-16T04:44:11.567Z,99.90
2018-07-16T04:46:40.408Z,99.90
2018-07-16T04:49:09.027Z,99.90
2018-07-16T04:51:37.630Z,99.90
2018-07-16T04:54:06.664Z,99.90
2018-07-16T04:56:35.568Z,99.90
2018-07-16T04:59:04.195Z,99.90
2018-07-16T05:01:32.696Z,99.90
2018-07-16T05:04:01.171Z,99.90
2018-07-16T05:06:29.647Z,99.90
2018-07-16T05:08:59.953Z,99.90
2018-07-16T05:11:29.004Z,99.90
2018-07-16T05:13:58.061Z,99.90
2018-07-16T05:16:26.734Z,99.90
2018-07-16T05:18:55.291Z,99.90
2018-07-16T05:21:23.819Z,99.90
2018-07-16T05:23:52.638Z,99.90
2018-07-16T05:26:21.273Z,99.90
2018-07-16T05:28:49.933Z,99.90
2018-07-16T05:31:18.802Z,99.90
2018-07-16T05:33:47.306Z,99.90
2018-07-16T05:36:15.784Z,99.90
2018-07-16T05:38:44.283Z,99.90
2018-07-16T05:41:12.764Z,99.90
2018-07-16T05:43:41.241Z,99.90
2018-07-16T05:46:09.811Z,99.90
2018-07-16T05:48:38.305Z,99.90
2018-07-16T05:51:07.090Z,99.90
2018-07-16T05:53:35.565Z,94.60
2018-07-16T05:56:04.100Z,91.00
2018-07-16T05:58:32.648Z,93.40
2018-07-16T06:01:01.144Z,86.60
2018-07-16T06:03:29.649Z,73.80
2018-07-16T06:05:58.138Z,43.80
2018-07-16T06:08:26.652Z,28.60
2018-07-16T06:10:55.109Z,35.20
2018-07-16T06:13:23.615Z,1.00
2018-07-16T06:15:52.097Z,3.90
2018-07-16T06:18:20.639Z,6.90
2018-07-16T06:20:49.091Z,10.20
2018-07-16T06:23:17.651Z,1.00
2018-07-16T06:25:46.124Z,7.40
2018-07-16T06:28:14.651Z,15.80
2018-07-16T06:30:43.114Z,2.00
2018-07-16T06:33:11.618Z,14.40
2018-07-16T06:35:40.096Z,15.40
2018-07-16T06:38:08.713Z,1.00
2018-07-16T06:40:37.287Z,1.00
2018-07-16T06:43:05.667Z,1.00
2018-07-16T06:45:34.170Z,1.00
2018-07-16T06:48:02.666Z,1.00
2018-07-16T06:50:31.108Z,1.00
2018-07-16T06:52:59.595Z,1.00
2018-07-16T06:55:28.062Z,1.00
2018-07-16T06:57:56.573Z,1.00
2018-07-16T07:00:25.111Z,99.90
2018-07-16T07:02:53.650Z,51.30
2018-07-16T07:05:22.123Z,99.90
2018-07-16T07:07:50.615Z,99.90
2018-07-16T07:10:19.075Z,1.00
2018-07-16T07:12:47.560Z,3.50
2018-07-16T07:15:16.035Z,99.90
2018-07-16T07:17:44.503Z,1.00
2018-07-16T07:20:13.171Z,99.90
2018-07-16T07:22:41.696Z,99.90
2018-07-16T07:25:10.162Z,99.90
2018-07-16T07:27:38.678Z,99.90
2018-07-16T07:30:07.163Z,99.90
2018-07-16T07:32:35.668Z,99.90
2018-07-16T07:35:04.185Z,99.90
2018-07-16T07:37:32.678Z,1.00
2018-07-16T07:40:01.156Z,35.60
2018-07-16T07:42:29.655Z,1.00
2018-07-16T07:44:58.478Z,92.30
2018-07-16T07:47:26.961Z,18.50
2018-07-16T07:49:55.425Z,1.00
2018-07-16T07:52:24.013Z,1.00
2018-07-16T07:54:52.759Z,99.90
2018-07-16T07:57:20.972Z,99.90
2018-07-16T07:59:49.448Z,99.90
2018-07-16T08:02:18.015Z,99.90
2018-07-16T08:04:46.479Z,99.90
2018-07-16T08:07:14.969Z,99.90
2018-07-16T08:09:44.466Z,99.90
2018-07-16T08:12:13.768Z,99.90
2018-07-16T08:14:43.704Z,99.90
2018-07-16T08:17:12.454Z,99.90
2018-07-16T08:19:41.087Z,99.90
2018-07-16T08:22:09.575Z,99.90
2018-07-16T08:24:38.127Z,99.90
2018-07-16T08:27:06.888Z,99.90
2018-07-16T08:29:35.410Z,99.90
2018-07-16T08:32:04.166Z,99.90
2018-07-16T08:34:32.674Z,99.90
2018-07-16T08:37:01.393Z,99.90
2018-07-16T08:39:29.929Z,99.90
2018-07-16T08:41:58.534Z,99.90
2018-07-16T08:44:27.051Z,99.90
2018-07-16T08:46:55.527Z,99.90
2018-07-16T08:49:24.320Z,99.90
2018-07-16T08:51:52.840Z,99.90
2018-07-16T08:54:21.311Z,99.90
2018-07-16T08:56:49.793Z,99.90
2018-07-16T08:59:18.323Z,99.90
2018-07-16T09:01:46.818Z,99.90
2018-07-16T09:04:15.304Z,99.90
2018-07-16T09:06:43.835Z,99.90
2018-07-16T09:09:12.411Z,99.90
2018-07-16T09:11:40.906Z,99.90
2018-07-16T09:14:09.431Z,99.90
2018-07-16T09:16:37.951Z,99.90
2018-07-16T09:19:06.559Z,99.90
2018-07-16T09:21:35.062Z,99.90
2018-07-16T09:24:03.604Z,99.90
2018-07-16T09:26:32.095Z,99.90
2018-07-16T09:29:00.571Z,99.90
2018-07-16T09:31:29.220Z,99.90
2018-07-16T09:33:57.698Z,99.90
2018-07-16T09:36:26.357Z,99.90
2018-07-16T09:38:54.837Z,99.90
2018-07-16T09:41:23.349Z,99.90
2018-07-16T09:43:51.878Z,99.90
2018-07-16T09:46:20.432Z,99.90
2018-07-16T09:48:48.903Z,99.90
2018-07-16T09:51:17.473Z,99.90
2018-07-16T09:53:46.006Z,99.90
2018-07-16T09:56:14.531Z,99.90
2018-07-16T09:58:42.987Z,99.90
2018-07-16T10:01:16.881Z,99.90
2018-07-16T10:03:45.439Z,99.90
2018-07-16T10:06:13.929Z,99.90
2018-07-16T10:08:42.409Z,99.90
2018-07-16T10:11:10.974Z,99.90
2018-07-16T10:13:39.463Z,99.90
2018-07-16T10:16:08.013Z,99.90
2018-07-16T10:18:36.522Z,99.90
2018-07-16T10:23:33.143Z,99.90
2018-07-16T10:26:01.644Z,99.90
2018-07-16T10:28:30.112Z,99.90
2018-07-16T10:30:58.637Z,99.90
2018-07-16T10:33:27.136Z,99.90
2018-07-16T10:35:55.650Z,99.90
2018-07-16T10:38:24.115Z,99.90
2018-07-16T10:40:52.643Z,99.90
2018-07-16T10:43:21.131Z,99.90
2018-07-16T10:45:49.594Z,99.90
2018-07-16T10:48:18.095Z,99.90
2018-07-16T10:50:46.614Z,99.90
2018-07-16T10:53:15.141Z,99.90
2018-07-16T10:55:43.642Z,99.90
2018-07-16T10:58:12.213Z,99.90
2018-07-16T11:00:40.801Z,99.90
2018-07-16T11:03:09.363Z,99.90
2018-07-16T11:08:05.973Z,99.90
2018-07-16T11:10:34.443Z,99.90
2018-07-16T11:13:02.983Z,99.90
2018-07-16T11:15:31.440Z,99.90
2018-07-16T11:17:59.942Z,99.90
2018-07-16T11:20:28.418Z,99.90
2018-07-16T11:22:56.912Z,99.90
2018-07-16T11:25:25.393Z,99.90
2018-07-16T11:27:53.864Z,99.90
2018-07-16T11:30:22.467Z,99.90
2018-07-16T11:32:50.992Z,99.90
2018-07-16T11:35:19.556Z,99.90
2018-07-16T11:37:48.017Z,99.90
2018-07-16T11:40:16.787Z,99.90
2018-07-16T11:42:45.270Z,99.90
2018-07-16T11:45:13.883Z,99.90
2018-07-16T11:47:48.887Z,99.90
2018-07-16T11:50:17.415Z,99.90
2018-07-16T11:52:45.884Z,99.90
2018-07-16T11:55:14.401Z,99.90
2018-07-16T11:57:42.966Z,99.90
2018-07-16T12:00:11.504Z,99.90
2018-07-16T12:02:39.991Z,99.90
2018-07-16T12:05:08.544Z,99.90
2018-07-16T12:07:37.101Z,99.90
2018-07-16T12:10:05.638Z,99.90
2018-07-16T12:12:34.242Z,99.90
2018-07-16T12:15:02.948Z,99.90
2018-07-16T12:17:31.560Z,99.90
2018-07-16T12:20:00.084Z,99.90
2018-07-16T12:22:28.580Z,99.90
2018-07-16T12:24:57.023Z,99.90
2018-07-16T12:27:25.690Z,99.90
2018-07-16T12:29:54.148Z,99.90
2018-07-16T12:32:22.656Z,99.90
2018-07-16T12:34:51.292Z,99.90
2018-07-16T12:37:20.116Z,99.90
2018-07-16T12:39:48.871Z,99.90
2018-07-16T12:42:17.639Z,99.90
2018-07-16T12:44:46.115Z,99.90
2018-07-16T12:47:14.619Z,99.90
2018-07-16T12:49:43.207Z,99.90
2018-07-16T12:52:11.683Z,99.90
2018-07-16T12:54:40.282Z,99.90
2018-07-16T12:57:09.009Z,99.90
2018-07-16T12:59:37.494Z,99.90
2018-07-16T13:02:05.983Z,99.90
2018-07-16T13:04:34.606Z,99.90
2018-07-16T13:07:03.183Z,99.90
2018-07-16T13:09:31.660Z,99.90
2018-07-16T13:12:00.130Z,99.90
2018-07-16T13:14:28.629Z,99.90
2018-07-16T13:16:57.202Z,99.90
2018-07-16T13:19:25.795Z,99.90
2018-07-16T13:21:54.371Z,99.90
2018-07-16T13:24:22.835Z,99.90
2018-07-16T13:26:51.294Z,99.90
2018-07-16T13:29:20.106Z,99.90
2018-07-16T13:31:48.674Z,99.90
2018-07-16T13:34:17.110Z,99.90
2018-07-16T13:36:45.723Z,99.90
2018-07-16T13:39:14.187Z,99.90
2018-07-16T13:41:42.747Z,99.90
2018-07-16T13:44:11.268Z,99.90
2018-07-16T13:46:39.805Z,99.90
2018-07-16T13:49:08.231Z,99.90
2018-07-16T13:51:36.750Z,99.90
2018-07-16T13:54:05.264Z,99.90
2018-07-16T13:56:33.755Z,99.90
2018-07-16T13:59:02.243Z,99.90
2018-07-16T14:01:30.742Z,99.90
2018-07-16T14:03:59.219Z,99.90
2018-07-16T14:06:27.694Z,99.90
2018-07-16T14:08:56.191Z,99.90
2018-07-16T14:11:24.862Z,99.90
2018-07-16T14:13:53.365Z,99.90
2018-07-16T14:16:21.867Z,99.90
2018-07-16T14:18:50.357Z,99.90
2018-07-16T14:21:18.928Z,99.90
2018-07-16T14:23:47.439Z,99.90
2018-07-16T14:26:15.918Z,99.90
2018-07-16T14:28:44.386Z,99.90
2018-07-16T14:31:12.965Z,99.90
2018-07-16T14:33:41.713Z,99.90
2018-07-16T14:36:10.584Z,99.90
2018-07-16T14:38:39.165Z,99.90
2018-07-16T14:41:08.101Z,99.90
2018-07-16T14:43:36.801Z,99.90
2018-07-16T14:46:05.365Z,99.90
2018-07-16T14:48:33.874Z,99.90
2018-07-16T14:51:02.498Z,99.90
2018-07-16T14:53:31.042Z,99.90
2018-07-16T14:55:59.669Z,99.90
2018-07-16T14:58:28.175Z,99.90
2018-07-16T15:00:56.690Z,99.90
2018-07-16T15:03:25.196Z,99.90
2018-07-16T15:05:53.687Z,99.90
2018-07-16T15:08:22.288Z,99.90
2018-07-16T15:10:50.793Z,99.90
2018-07-16T15:13:19.682Z,99.90
2018-07-16T15:15:48.178Z,99.90
2018-07-16T15:18:16.762Z,99.90
2018-07-16T15:20:45.437Z,99.90
2018-07-16T15:23:13.737Z,99.90
2018-07-16T15:25:42.281Z,99.90
2018-07-16T15:28:10.824Z,99.90
2018-07-16T15:30:39.319Z,99.90
2018-07-16T15:33:07.873Z,99.90
2018-07-16T15:35:36.468Z,99.90
2018-07-16T15:38:05.396Z,99.90
2018-07-16T15:40:33.953Z,99.90
2018-07-16T15:43:02.486Z,99.90
2018-07-16T15:45:31.043Z,99.90
2018-07-16T15:47:59.664Z,99.90
2018-07-16T15:50:28.181Z,99.90
2018-07-16T15:52:56.722Z,99.90
2018-07-16T15:55:25.364Z,99.90
2018-07-16T16:00:22.076Z,99.90
2018-07-16T16:02:50.554Z,99.90
2018-07-16T16:05:19.190Z,99.90
2018-07-16T16:07:47.678Z,99.90
2018-07-16T16:10:16.227Z,99.90
2018-07-16T16:12:44.690Z,99.90
2018-07-16T16:15:13.208Z,99.90
2018-07-16T16:17:41.779Z,99.90
2018-07-16T16:20:10.308Z,99.90
2018-07-16T16:22:38.799Z,99.90
2018-07-16T16:25:07.338Z,99.90
2018-07-16T16:27:35.901Z,99.90
2018-07-16T16:30:04.909Z,99.90
2018-07-16T16:32:33.616Z,99.90
2018-07-16T16:35:02.177Z,99.90
2018-07-16T16:37:31.129Z,99.90
2018-07-16T16:39:59.727Z,99.90
2018-07-16T16:42:28.324Z,99.90
2018-07-16T16:44:56.974Z,99.90
2018-07-16T16:49:54.172Z,99.90
2018-07-16T16:52:22.875Z,99.90
2018-07-16T16:54:51.366Z,99.90
2018-07-16T16:57:20.102Z,99.90
2018-07-16T16:59:48.689Z,99.90
2018-07-16T17:02:17.332Z,99.90
2018-07-16T17:04:45.837Z,99.90
2018-07-16T17:07:14.502Z,99.90
2018-07-16T17:09:43.163Z,99.90
2018-07-16T17:12:11.824Z,99.90
2018-07-16T17:14:40.471Z,99.90
2018-07-16T17:17:09.065Z,99.90
2018-07-16T17:19:37.744Z,99.90
2018-07-16T17:22:06.299Z,99.90
2018-07-16T17:24:35.221Z,99.90
2018-07-16T17:27:03.746Z,99.90
2018-07-16T17:29:32.332Z,99.90
2018-07-16T17:32:00.913Z,99.90
2018-07-16T17:34:29.520Z,99.90
2018-07-16T17:36:58.077Z,99.90
2018-07-16T17:39:26.731Z,99.90
2018-07-16T17:41:55.340Z,99.90
2018-07-16T17:44:23.906Z,99.90
2018-07-16T17:46:52.416Z,99.90
2018-07-16T17:49:20.995Z,99.90
2018-07-16T17:51:49.664Z,99.90
2018-07-16T17:54:18.213Z,99.90
2018-07-16T17:56:46.818Z,99.90
2018-07-16T17:59:15.391Z,99.90
2018-07-16T18:01:43.967Z,99.90
2018-07-16T18:04:12.554Z,99.90
2018-07-16T18:06:41.099Z,99.90
2018-07-16T18:09:09.943Z,99.90
2018-07-16T18:11:38.750Z,99.90
2018-07-16T18:14:07.375Z,99.90
2018-07-16T18:16:35.963Z,99.90
2018-07-16T18:19:04.499Z,99.90
2018-07-16T18:21:33.099Z,99.90
2018-07-16T18:24:01.603Z,99.90
2018-07-16T18:26:30.170Z,99.90
2018-07-16T18:28:58.671Z,99.90
2018-07-16T18:31:27.227Z,99.90
2018-07-16T18:33:55.787Z,99.90
2018-07-16T18:36:24.544Z,99.90
2018-07-16T18:38:53.182Z,99.90
2018-07-16T18:41:21.743Z,99.90
2018-07-16T18:43:50.277Z,99.90
2018-07-16T18:46:18.797Z,99.90
2018-07-16T18:48:47.340Z,99.90
2018-07-16T18:51:16.109Z,99.90
2018-07-16T18:53:44.747Z,99.90
2018-07-16T18:56:13.400Z,99.90
2018-07-16T18:58:42.030Z,99.90
2018-07-16T19:01:10.583Z,99.90
2018-07-16T19:03:39.165Z,99.90
2018-07-16T19:06:07.627Z,99.90
2018-07-16T19:08:36.167Z,99.90
2018-07-16T19:11:04.688Z,99.90
2018-07-16T19:13:33.232Z,99.90
2018-07-16T19:16:01.758Z,99.90
2018-07-16T19:18:30.303Z,99.90
2018-07-16T19:20:59.003Z,99.90
2018-07-16T19:23:27.592Z,99.90
2018-07-16T19:25:56.146Z,99.90
2018-07-16T19:28:24.662Z,99.90
2018-07-16T19:33:21.360Z,99.90
2018-07-16T19:35:50.082Z,99.90
2018-07-16T19:38:18.634Z,99.90
2018-07-16T19:40:47.461Z,99.90
2018-07-16T19:43:15.987Z,99.90
2018-07-16T19:45:44.532Z,99.90
2018-07-16T19:48:13.136Z,99.90
2018-07-16T19:50:41.990Z,99.90
2018-07-16T19:53:10.745Z,99.90
2018-07-16T19:55:39.481Z,99.90
2018-07-16T19:58:08.999Z,99.90
2018-07-16T20:00:37.796Z,99.90
2018-07-16T20:05:34.841Z,99.90
2018-07-16T20:08:03.637Z,99.90
2018-07-16T20:10:32.621Z,99.90
2018-07-16T20:13:01.262Z,99.90
2018-07-16T20:15:29.802Z,99.90
2018-07-16T20:17:58.298Z,99.90
2018-07-16T20:20:26.993Z,99.90
2018-07-16T20:22:55.440Z,99.90
2018-07-16T20:25:23.922Z,99.90
2018-07-16T20:27:52.691Z,99.90
2018-07-16T20:30:21.304Z,99.90
2018-07-16T20:32:49.906Z,99.90
2018-07-16T20:35:18.462Z,99.90
2018-07-16T20:37:47.546Z,99.90
2018-07-16T20:40:16.214Z,1.00
2018-07-16T20:42:44.777Z,1.00
2018-07-16T20:45:13.287Z,1.00
2018-07-16T20:47:41.787Z,1.00
2018-07-16T20:50:10.406Z,99.90
2018-07-16T20:52:38.916Z,99.90
2018-07-16T20:55:07.463Z,1.00
2018-07-16T20:57:36.061Z,1.00
2018-07-16T21:00:05.165Z,99.90
2018-07-16T21:02:33.782Z,1.00
2018-07-16T21:05:02.430Z,1.00
2018-07-16T21:07:30.970Z,1.00
2018-07-16T21:09:59.471Z,1.00
2018-07-16T21:12:28.119Z,1.00
2018-07-16T21:14:56.599Z,1.00
2018-07-16T21:17:25.132Z,99.90
2018-07-16T21:19:53.747Z,1.00
2018-07-16T21:22:22.190Z,1.00
2018-07-16T21:24:50.983Z,1.00
2018-07-16T21:27:19.459Z,1.00
2018-07-16T21:29:48.090Z,1.00
2018-07-16T21:32:16.851Z,32.50
2018-07-16T21:34:45.344Z,94.60
2018-07-16T21:37:14.216Z,74.70
2018-07-16T21:39:43.470Z,1.00
2018-07-16T21:42:11.979Z,1.00
2018-07-16T21:44:40.542Z,1.00
2018-07-16T21:47:09.045Z,16.10
2018-07-16T21:49:37.595Z,1.00
2018-07-16T21:52:06.170Z,16.70
2018-07-16T21:54:35.240Z,99.90
2018-07-16T21:57:03.770Z,99.90
2018-07-16T21:59:32.267Z,99.90
2018-07-16T22:02:00.798Z,1.00
2018-07-16T22:04:29.295Z,1.00
2018-07-16T22:06:57.883Z,1.00
2018-07-16T22:09:26.395Z,1.00
2018-07-16T22:11:54.891Z,1.00
2018-07-16T22:14:23.416Z,1.00
2018-07-16T22:16:51.907Z,1.00
2018-07-16T22:21:48.663Z,1.00
2018-07-16T22:26:45.345Z,1.00
2018-07-16T22:29:13.876Z,1.00
2018-07-16T22:31:42.497Z,1.00
2018-07-16T22:39:10.905Z,1.00
2018-07-16T22:41:39.867Z,1.00
2018-07-16T22:44:08.393Z,1.00
2018-07-16T22:46:36.832Z,1.00
2018-07-16T22:49:05.539Z,1.00
2018-07-16T22:51:34.151Z,1.00
2018-07-16T22:54:02.617Z,1.00
2018-07-16T22:56:31.096Z,1.00
2018-07-16T23:01:27.841Z,1.00
2018-07-16T23:03:56.319Z,1.00
2018-07-16T23:06:24.860Z,1.00
2018-07-16T23:08:53.395Z,1.00
2018-07-16T23:11:21.855Z,1.00
2018-07-16T23:13:50.372Z,1.00
2018-07-16T23:16:18.909Z,1.00
2018-07-16T23:18:47.395Z,1.00
2018-07-16T23:21:15.871Z,1.00
2018-07-16T23:23:44.342Z,1.00
2018-07-16T23:26:12.980Z,1.00
2018-07-16T23:28:41.514Z,1.00
2018-07-16T23:31:09.941Z,1.00
2018-07-16T23:33:38.513Z,1.00
2018-07-16T23:36:07.000Z,1.00
2018-07-16T23:38:35.562Z,1.00
2018-07-16T23:41:04.116Z,1.00
2018-07-16T23:43:32.567Z,1.00
2018-07-16T23:48:29.391Z,7.80
2018-07-16T23:50:57.904Z,1.00
2018-07-16T23:53:26.432Z,16.20
2018-07-16T23:55:55.023Z,1.20
2018-07-16T23:58:23.402Z,2.50
